createdAt,value
2019-03-06T00:01:27.357Z,5.00
2019-03-06T00:03:57.150Z,5.10
2019-03-06T00:06:26.868Z,5.10
2019-03-06T00:08:56.666Z,5.20
2019-03-06T00:11:26.244Z,5.20
2019-03-06T00:13:55.992Z,5.30
2019-03-06T00:16:25.726Z,5.30
2019-03-06T00:18:55.348Z,5.40
2019-03-06T00:21:25.017Z,5.40
2019-03-06T00:23:54.718Z,5.50
2019-03-06T00:26:24.487Z,5.60
2019-03-06T00:28:54.131Z,5.60
2019-03-06T00:31:23.698Z,5.70
2019-03-06T00:33:53.431Z,5.70
2019-03-06T00:36:23.294Z,5.70
2019-03-06T00:38:52.815Z,5.70
2019-03-06T00:41:24.055Z,5.70
2019-03-06T00:43:53.778Z,5.60
2019-03-06T00:46:23.456Z,5.60
2019-03-06T00:48:52.945Z,5.60
2019-03-06T00:51:22.899Z,5.60
2019-03-06T00:53:52.463Z,5.50
2019-03-06T00:56:22.182Z,5.50
2019-03-06T00:58:51.879Z,5.50
2019-03-06T01:01:21.735Z,5.50
2019-03-06T01:03:51.350Z,5.50
2019-03-06T01:06:21.013Z,5.50
2019-03-06T01:08:50.899Z,5.60
2019-03-06T01:11:20.582Z,5.70
2019-03-06T01:13:50.219Z,5.80
2019-03-06T01:16:19.859Z,5.80
2019-03-06T01:18:49.518Z,5.90
2019-03-06T01:21:19.140Z,6.00
2019-03-06T01:23:49.059Z,6.10
2019-03-06T01:26:18.726Z,6.10
2019-03-06T01:28:48.576Z,6.10
2019-03-06T01:31:18.365Z,6.20
2019-03-06T01:33:49.663Z,6.20
2019-03-06T01:36:24.016Z,6.20
2019-03-06T01:38:55.410Z,6.20
2019-03-06T01:41:26.555Z,6.30
2019-03-06T01:44:04.059Z,6.20
2019-03-06T01:46:33.706Z,6.20
2019-03-06T01:49:03.319Z,6.20
2019-03-06T01:51:32.971Z,6.20
2019-03-06T01:54:02.755Z,6.30
2019-03-06T01:56:32.348Z,6.20
2019-03-06T01:59:01.991Z,6.20
2019-03-06T02:01:31.730Z,6.30
2019-03-06T02:04:01.948Z,6.20
2019-03-06T02:06:31.866Z,6.30
2019-03-06T02:09:01.638Z,6.30
2019-03-06T02:11:31.346Z,6.30
2019-03-06T02:14:01.003Z,6.30
2019-03-06T02:16:30.879Z,6.30
2019-03-06T02:19:01.794Z,6.40
2019-03-06T02:21:31.592Z,6.30
2019-03-06T02:24:01.287Z,6.30
2019-03-06T02:26:30.992Z,6.30
2019-03-06T02:29:00.748Z,6.30
2019-03-06T02:31:30.434Z,6.30
2019-03-06T02:34:00.055Z,6.30
2019-03-06T02:36:29.936Z,6.40
2019-03-06T02:38:59.556Z,6.40
2019-03-06T02:41:29.114Z,6.40
2019-03-06T02:43:58.702Z,6.40
2019-03-06T02:46:28.375Z,6.50
2019-03-06T02:48:58.035Z,6.50
2019-03-06T02:51:27.705Z,6.50
2019-03-06T02:53:57.416Z,6.50
2019-03-06T02:56:27.104Z,6.50
2019-03-06T02:58:59.281Z,6.50
2019-03-06T03:01:45.508Z,6.60
2019-03-06T03:04:16.653Z,6.60
2019-03-06T03:06:50.596Z,6.60
2019-03-06T03:09:39.591Z,6.60
2019-03-06T03:12:09.298Z,6.60
2019-03-06T03:14:39.016Z,6.60
2019-03-06T03:17:08.892Z,6.60
2019-03-06T03:19:38.536Z,6.60
2019-03-06T03:22:08.304Z,6.60
2019-03-06T03:24:37.857Z,6.70
2019-03-06T03:27:07.564Z,6.70
2019-03-06T03:29:37.197Z,6.70
2019-03-06T03:32:06.780Z,6.70
2019-03-06T03:34:36.554Z,6.80
2019-03-06T03:37:06.299Z,6.80
2019-03-06T03:39:35.876Z,6.80
2019-03-06T03:42:05.644Z,6.80
2019-03-06T03:44:35.226Z,6.90
2019-03-06T03:47:05.043Z,6.90
2019-03-06T03:49:34.788Z,6.90
2019-03-06T03:52:04.509Z,7.00
2019-03-06T03:54:34.371Z,7.00
2019-03-06T03:57:04.112Z,7.10
2019-03-06T03:59:33.771Z,7.10
2019-03-06T04:02:03.434Z,7.20
2019-03-06T04:04:33.144Z,7.10
2019-03-06T04:07:02.757Z,7.10
2019-03-06T04:09:32.408Z,7.10
2019-03-06T04:12:02.030Z,7.10
2019-03-06T04:14:31.634Z,7.10
2019-03-06T04:17:01.207Z,7.10
2019-03-06T04:19:30.798Z,7.20
2019-03-06T04:22:00.603Z,7.20
2019-03-06T04:24:30.439Z,7.20
2019-03-06T04:27:00.083Z,7.10
2019-03-06T04:29:29.801Z,7.10
2019-03-06T04:31:59.508Z,7.10
2019-03-06T04:34:29.203Z,7.00
2019-03-06T04:37:18.197Z,7.00
2019-03-06T04:39:47.737Z,7.00
2019-03-06T04:42:17.411Z,7.00
2019-03-06T04:44:47.370Z,7.00
2019-03-06T04:47:16.882Z,7.00
2019-03-06T04:49:52.796Z,7.10
2019-03-06T04:52:17.866Z,7.10
2019-03-06T04:54:47.455Z,7.10
2019-03-06T04:57:17.275Z,7.10
2019-03-06T04:59:46.953Z,7.10
2019-03-06T05:02:16.660Z,7.10
2019-03-06T05:04:46.516Z,7.10
2019-03-06T05:07:16.171Z,7.20
2019-03-06T05:09:45.925Z,7.20
2019-03-06T05:12:15.574Z,7.20
2019-03-06T05:14:45.091Z,7.20
2019-03-06T05:17:16.347Z,7.30
2019-03-06T05:19:45.928Z,7.30
2019-03-06T05:22:15.736Z,7.30
2019-03-06T05:24:45.354Z,7.30
2019-03-06T05:27:14.928Z,7.30
2019-03-06T05:29:44.687Z,7.30
2019-03-06T05:32:31.030Z,7.30
2019-03-06T05:35:04.162Z,7.30
2019-03-06T05:37:58.270Z,7.30
2019-03-06T05:40:28.006Z,7.30
2019-03-06T05:42:57.496Z,7.20
2019-03-06T05:45:27.232Z,7.20
2019-03-06T05:47:57.030Z,7.10
2019-03-06T05:50:26.687Z,7.20
2019-03-06T05:52:56.517Z,7.20
2019-03-06T05:55:26.275Z,7.20
2019-03-06T05:57:56.022Z,7.20
2019-03-06T06:00:27.746Z,7.20
2019-03-06T06:02:57.505Z,7.20
2019-03-06T06:05:27.234Z,7.20
2019-03-06T06:07:57.002Z,7.20
2019-03-06T06:10:26.646Z,7.10
2019-03-06T06:12:56.440Z,7.10
2019-03-06T06:15:26.180Z,7.10
2019-03-06T06:17:55.710Z,7.10
2019-03-06T06:20:25.259Z,7.10
2019-03-06T06:23:14.738Z,7.20
2019-03-06T06:25:44.466Z,7.20
2019-03-06T06:28:14.159Z,7.20
2019-03-06T06:30:44.110Z,7.30
2019-03-06T06:33:13.759Z,7.40
2019-03-06T06:35:43.471Z,7.40
2019-03-06T06:38:13.152Z,7.40
2019-03-06T06:40:42.857Z,7.50
2019-03-06T06:43:12.678Z,7.50
2019-03-06T06:45:42.242Z,7.60
2019-03-06T06:48:16.655Z,7.70
2019-03-06T06:51:01.641Z,7.70
2019-03-06T06:53:32.061Z,7.70
2019-03-06T06:56:22.955Z,7.80
2019-03-06T06:59:13.875Z,7.80
2019-03-06T07:02:07.487Z,7.80
2019-03-06T07:05:18.791Z,7.90
2019-03-06T07:07:59.136Z,7.90
2019-03-06T07:10:45.630Z,8.10
2019-03-06T07:13:22.532Z,8.10
2019-03-06T07:16:10.309Z,8.20
2019-03-06T07:18:44.000Z,8.30
2019-03-06T07:21:17.899Z,8.30
2019-03-06T07:23:51.547Z,8.40
2019-03-06T07:26:37.724Z,8.50
2019-03-06T07:29:09.087Z,8.50
2019-03-06T07:31:43.264Z,8.50
2019-03-06T07:34:23.654Z,8.70
2019-03-06T07:36:57.923Z,8.80
2019-03-06T07:39:29.042Z,8.90
2019-03-06T07:42:02.978Z,9.00
2019-03-06T07:44:45.847Z,9.20
2019-03-06T07:47:17.002Z,9.30
2019-03-06T07:49:55.325Z,9.50
2019-03-06T07:52:32.525Z,9.60
2019-03-06T07:55:06.819Z,9.60
2019-03-06T07:57:55.906Z,9.50
2019-03-06T08:00:25.602Z,9.40
2019-03-06T08:02:58.547Z,9.30
2019-03-06T08:05:28.463Z,9.30
2019-03-06T08:07:58.031Z,9.20
2019-03-06T08:10:29.421Z,9.30
2019-03-06T08:13:00.673Z,9.40
2019-03-06T08:15:40.696Z,9.50
2019-03-06T08:18:11.902Z,9.50
2019-03-06T08:20:51.954Z,9.60
2019-03-06T08:23:38.186Z,9.90
2019-03-06T08:26:08.367Z,10.00
2019-03-06T08:28:37.890Z,10.30
2019-03-06T08:31:15.072Z,10.70
2019-03-06T08:33:44.791Z,10.80
2019-03-06T08:36:14.623Z,10.90
2019-03-06T08:38:44.414Z,11.00
2019-03-06T08:41:14.054Z,11.10
2019-03-06T08:43:44.078Z,11.20
2019-03-06T08:46:31.644Z,11.40
2019-03-06T08:49:02.928Z,11.70
2019-03-06T08:51:43.382Z,11.90
2019-03-06T08:54:17.503Z,11.90
2019-03-06T08:57:00.678Z,12.10
2019-03-06T08:59:31.951Z,12.30
2019-03-06T09:02:03.331Z,12.50
2019-03-06T09:04:36.184Z,12.50
2019-03-06T09:07:16.336Z,12.60
2019-03-06T09:09:46.856Z,12.80
2019-03-06T09:12:33.785Z,13.20
2019-03-06T09:15:07.518Z,13.30
2019-03-06T09:17:47.247Z,13.40
2019-03-06T09:20:35.955Z,13.60
2019-03-06T09:23:04.597Z,13.60
2019-03-06T09:25:35.056Z,13.50
2019-03-06T09:28:08.143Z,13.60
2019-03-06T09:30:41.419Z,13.70
2019-03-06T09:33:11.859Z,14.00
2019-03-06T09:35:48.130Z,14.50
2019-03-06T09:38:36.303Z,14.80
2019-03-06T09:41:06.732Z,14.80
2019-03-06T09:43:40.185Z,14.50
2019-03-06T09:46:16.404Z,14.50
2019-03-06T09:48:52.467Z,14.80
2019-03-06T09:51:28.702Z,15.40
2019-03-06T09:54:14.067Z,15.20
2019-03-06T09:56:50.096Z,15.00
2019-03-06T09:59:23.375Z,15.20
2019-03-06T10:01:53.698Z,15.50
2019-03-06T10:04:36.159Z,15.10
2019-03-06T10:07:15.907Z,15.00
2019-03-06T10:09:46.257Z,14.50
2019-03-06T10:12:34.911Z,14.60
2019-03-06T10:15:06.454Z,14.40
2019-03-06T10:17:53.118Z,14.30
2019-03-06T10:20:25.399Z,14.40
2019-03-06T10:22:54.850Z,14.50
2019-03-06T10:25:34.670Z,14.40
2019-03-06T10:27:55.625Z,14.60
2019-03-06T10:30:24.521Z,14.70
2019-03-06T10:32:53.530Z,15.10
2019-03-06T10:35:22.295Z,15.20
2019-03-06T10:37:51.257Z,15.30
2019-03-06T10:40:20.358Z,15.60
2019-03-06T10:42:49.242Z,16.00
2019-03-06T10:45:18.298Z,15.80
2019-03-06T10:47:47.488Z,15.40
2019-03-06T10:50:35.579Z,15.20
2019-03-06T10:53:04.529Z,14.90
2019-03-06T10:55:33.366Z,14.70
2019-03-06T10:58:02.657Z,14.80
2019-03-06T11:00:36.036Z,15.30
2019-03-06T11:03:05.455Z,15.20
2019-03-06T11:05:35.779Z,15.60
2019-03-06T11:08:05.035Z,15.70
2019-03-06T11:10:53.234Z,16.00
2019-03-06T11:13:22.220Z,16.00
2019-03-06T11:15:55.667Z,16.00
2019-03-06T11:18:21.762Z,16.00
2019-03-06T11:20:51.314Z,15.80
2019-03-06T11:23:20.627Z,16.00
2019-03-06T11:25:49.612Z,16.20
2019-03-06T11:28:18.834Z,16.30
2019-03-06T11:30:49.218Z,16.50
2019-03-06T11:33:18.700Z,16.40
2019-03-06T11:35:47.787Z,16.40
2019-03-06T11:38:16.805Z,16.30
2019-03-06T11:40:45.649Z,16.20
2019-03-06T11:43:14.583Z,16.10
2019-03-06T11:45:43.442Z,16.30
2019-03-06T11:48:12.510Z,16.20
2019-03-06T11:50:41.346Z,16.10
2019-03-06T11:53:10.551Z,16.10
2019-03-06T11:55:39.482Z,16.10
2019-03-06T11:58:09.913Z,15.90
2019-03-06T12:00:44.419Z,16.10
2019-03-06T12:03:14.849Z,16.10
2019-03-06T12:05:44.362Z,16.30
2019-03-06T12:08:16.809Z,16.60
2019-03-06T12:10:45.758Z,16.70
2019-03-06T12:13:15.540Z,16.50
2019-03-06T12:15:45.927Z,16.50
2019-03-06T12:18:15.095Z,16.30
2019-03-06T12:20:44.219Z,16.30
2019-03-06T12:23:13.006Z,16.40
2019-03-06T12:25:42.191Z,16.20
2019-03-06T12:28:11.846Z,16.20
2019-03-06T12:30:40.946Z,16.30
2019-03-06T12:33:10.359Z,16.30
2019-03-06T12:35:39.143Z,16.40
2019-03-06T12:38:07.987Z,16.70
2019-03-06T12:40:36.887Z,16.80
2019-03-06T12:43:05.872Z,16.70
2019-03-06T12:45:34.978Z,16.50
2019-03-06T12:48:11.413Z,16.60
2019-03-06T12:50:40.831Z,16.80
2019-03-06T12:53:09.680Z,17.10
2019-03-06T12:55:38.525Z,17.10
2019-03-06T12:58:07.378Z,16.90
2019-03-06T13:00:36.530Z,16.60
2019-03-06T13:03:05.479Z,16.30
2019-03-06T13:05:34.389Z,16.30
2019-03-06T13:08:03.253Z,16.20
2019-03-06T13:10:32.119Z,16.20
2019-03-06T13:13:00.926Z,16.30
2019-03-06T13:15:29.982Z,16.30
2019-03-06T13:17:58.863Z,16.10
2019-03-06T13:20:27.691Z,15.90
2019-03-06T13:22:56.661Z,15.70
2019-03-06T13:25:25.506Z,15.60
2019-03-06T13:27:55.123Z,15.60
2019-03-06T13:30:43.936Z,15.70
2019-03-06T13:33:23.378Z,15.60
2019-03-06T13:35:52.168Z,15.60
2019-03-06T13:38:21.036Z,15.60
2019-03-06T13:40:49.995Z,15.50
2019-03-06T13:43:38.097Z,15.30
2019-03-06T13:46:06.854Z,15.30
2019-03-06T13:48:35.685Z,15.20
2019-03-06T13:51:04.682Z,15.10
2019-03-06T13:53:33.696Z,15.00
2019-03-06T13:56:02.683Z,14.90
2019-03-06T13:58:31.480Z,15.00
2019-03-06T14:01:00.495Z,14.80
2019-03-06T14:03:29.401Z,14.80
2019-03-06T14:05:58.652Z,14.80
2019-03-06T14:08:27.664Z,14.80
2019-03-06T14:10:56.507Z,14.80
2019-03-06T14:13:25.318Z,14.70
2019-03-06T14:15:54.330Z,14.70
2019-03-06T14:18:23.398Z,14.60
2019-03-06T14:20:52.351Z,14.50
2019-03-06T14:23:21.262Z,14.50
2019-03-06T14:25:50.150Z,14.50
2019-03-06T14:28:19.074Z,14.50
2019-03-06T14:30:48.043Z,14.50
2019-03-06T14:33:16.920Z,14.40
2019-03-06T14:35:46.213Z,14.30
2019-03-06T14:38:14.970Z,14.30
2019-03-06T14:40:43.852Z,14.20
2019-03-06T14:43:12.745Z,14.10
2019-03-06T14:45:41.590Z,14.10
2019-03-06T14:48:10.390Z,14.00
2019-03-06T14:50:39.340Z,14.00
2019-03-06T14:53:08.117Z,13.90
2019-03-06T14:55:36.999Z,13.90
2019-03-06T14:58:05.846Z,13.80
2019-03-06T15:00:34.643Z,13.70
2019-03-06T15:03:03.529Z,13.60
2019-03-06T15:05:51.639Z,13.60
2019-03-06T15:08:20.466Z,13.40
2019-03-06T15:10:49.453Z,13.10
2019-03-06T15:13:18.225Z,13.00
2019-03-06T15:15:47.003Z,13.00
2019-03-06T15:18:16.070Z,13.00
2019-03-06T15:20:44.921Z,13.00
2019-03-06T15:23:13.783Z,13.00
2019-03-06T15:25:42.932Z,12.90
2019-03-06T15:28:11.798Z,12.80
2019-03-06T15:30:40.591Z,12.70
2019-03-06T15:33:13.625Z,12.70
2019-03-06T15:35:42.400Z,12.70
2019-03-06T15:38:11.491Z,12.80
2019-03-06T15:40:40.669Z,12.90
2019-03-06T15:43:11.599Z,13.00
2019-03-06T15:45:40.680Z,13.00
2019-03-06T15:48:09.669Z,13.10
2019-03-06T15:50:38.563Z,13.10
2019-03-06T15:53:07.475Z,13.10
2019-03-06T15:55:36.276Z,13.10
2019-03-06T15:58:05.275Z,13.10
2019-03-06T16:00:45.848Z,13.10
2019-03-06T16:03:12.308Z,13.10
2019-03-06T16:05:41.503Z,13.00
2019-03-06T16:08:11.163Z,13.00
2019-03-06T16:10:40.325Z,13.00
2019-03-06T16:13:09.191Z,13.00
2019-03-06T16:15:38.065Z,12.90
2019-03-06T16:18:07.717Z,12.90
2019-03-06T16:20:36.616Z,12.90
2019-03-06T16:23:05.772Z,12.80
2019-03-06T16:25:37.318Z,12.90
2019-03-06T16:28:05.198Z,12.90
2019-03-06T16:30:53.275Z,12.80
2019-03-06T16:33:41.517Z,12.80
2019-03-06T16:36:10.330Z,12.80
2019-03-06T16:38:39.322Z,12.70
2019-03-06T16:41:08.196Z,12.70
2019-03-06T16:43:36.945Z,12.70
2019-03-06T16:46:06.027Z,12.60
2019-03-06T16:48:34.718Z,12.60
2019-03-06T16:51:03.603Z,12.60
2019-03-06T16:53:32.298Z,12.50
2019-03-06T16:56:01.087Z,12.50
2019-03-06T16:58:29.959Z,12.50
2019-03-06T17:00:58.806Z,12.50
2019-03-06T17:03:27.650Z,12.40
2019-03-06T17:05:56.519Z,12.30
2019-03-06T17:08:25.510Z,12.20
2019-03-06T17:10:54.330Z,12.10
2019-03-06T17:13:23.112Z,12.00
2019-03-06T17:15:51.967Z,11.90
2019-03-06T17:18:20.866Z,11.80
2019-03-06T17:20:49.617Z,11.80
2019-03-06T17:23:18.453Z,11.70
2019-03-06T17:25:47.242Z,11.70
2019-03-06T17:28:16.146Z,11.60
2019-03-06T17:30:45.130Z,11.60
2019-03-06T17:33:14.607Z,11.50
2019-03-06T17:35:43.429Z,11.40
2019-03-06T17:38:13.227Z,11.30
2019-03-06T17:40:42.195Z,11.30
2019-03-06T17:43:11.095Z,11.30
2019-03-06T17:45:40.100Z,11.30
2019-03-06T17:48:09.454Z,11.40
2019-03-06T17:50:38.431Z,11.40
2019-03-06T17:53:07.326Z,11.40
2019-03-06T17:55:36.157Z,11.40
2019-03-06T17:58:05.390Z,11.40
2019-03-06T18:00:45.069Z,11.40
2019-03-06T18:03:15.723Z,11.30
2019-03-06T18:05:44.461Z,11.30
2019-03-06T18:08:13.500Z,11.30
2019-03-06T18:10:50.299Z,11.10
2019-03-06T18:13:19.146Z,11.10
2019-03-06T18:15:47.941Z,11.00
2019-03-06T18:18:16.668Z,10.90
2019-03-06T18:20:45.518Z,10.90
2019-03-06T18:23:14.519Z,10.90
2019-03-06T18:25:43.708Z,11.00
2019-03-06T18:28:12.607Z,11.00
2019-03-06T18:30:41.592Z,11.00
2019-03-06T18:33:10.515Z,11.10
2019-03-06T18:35:39.346Z,11.00
2019-03-06T18:38:19.636Z,11.00
2019-03-06T18:40:48.591Z,11.00
2019-03-06T18:43:17.495Z,10.90
2019-03-06T18:45:46.365Z,10.90
2019-03-06T18:48:15.175Z,10.90
2019-03-06T18:50:43.962Z,10.90
2019-03-06T18:53:12.752Z,10.90
2019-03-06T18:55:41.947Z,10.80
2019-03-06T18:58:12.966Z,10.80
2019-03-06T19:00:41.787Z,10.70
2019-03-06T19:03:10.593Z,10.70
2019-03-06T19:05:39.476Z,10.60
2019-03-06T19:08:08.379Z,10.50
2019-03-06T19:10:43.876Z,10.50
2019-03-06T19:13:12.770Z,10.40
2019-03-06T19:15:42.331Z,10.30
2019-03-06T19:18:11.254Z,10.30
2019-03-06T19:20:40.031Z,10.20
2019-03-06T19:23:08.870Z,10.20
2019-03-06T19:25:37.722Z,10.20
2019-03-06T19:28:06.918Z,10.10
2019-03-06T19:30:35.859Z,10.10
2019-03-06T19:33:04.743Z,10.10
2019-03-06T19:35:33.666Z,10.10
2019-03-06T19:38:02.462Z,10.10
2019-03-06T19:40:31.307Z,10.00
2019-03-06T19:43:00.363Z,10.10
2019-03-06T19:45:29.227Z,10.10
2019-03-06T19:47:58.086Z,10.00
2019-03-06T19:50:27.509Z,10.00
2019-03-06T19:52:56.404Z,10.00
2019-03-06T19:55:25.589Z,10.00
2019-03-06T19:57:55.146Z,10.10
2019-03-06T20:00:24.884Z,10.10
2019-03-06T20:02:53.747Z,10.10
2019-03-06T20:05:23.452Z,10.10
2019-03-06T20:07:52.241Z,10.10
2019-03-06T20:10:21.773Z,10.10
2019-03-06T20:12:50.638Z,10.10
2019-03-06T20:15:19.561Z,10.10
2019-03-06T20:17:48.419Z,10.10
2019-03-06T20:20:17.730Z,10.10
2019-03-06T20:22:46.717Z,10.10
2019-03-06T20:25:17.518Z,10.20
2019-03-06T20:27:46.898Z,10.10
2019-03-06T20:30:17.395Z,10.20
2019-03-06T20:32:47.302Z,10.20
2019-03-06T20:35:18.124Z,10.20
2019-03-06T20:37:47.307Z,10.20
2019-03-06T20:40:16.838Z,10.20
2019-03-06T20:42:46.094Z,10.20
2019-03-06T20:45:15.919Z,10.20
2019-03-06T20:47:44.762Z,10.20
2019-03-06T20:50:14.509Z,10.20
2019-03-06T20:53:02.637Z,10.20
2019-03-06T20:55:31.574Z,10.20
2019-03-06T20:58:00.784Z,10.20
2019-03-06T21:00:29.699Z,10.10
2019-03-06T21:02:58.612Z,10.10
2019-03-06T21:05:27.566Z,10.10
2019-03-06T21:07:56.471Z,10.10
2019-03-06T21:10:25.342Z,10.10
2019-03-06T21:12:54.479Z,10.10
2019-03-06T21:15:23.864Z,10.10
2019-03-06T21:17:52.803Z,10.10
2019-03-06T21:20:23.958Z,10.10
2019-03-06T21:22:52.761Z,10.10
2019-03-06T21:25:21.880Z,10.10
2019-03-06T21:27:51.048Z,10.00
2019-03-06T21:30:27.536Z,10.00
2019-03-06T21:32:56.374Z,10.00
2019-03-06T21:35:25.161Z,10.00
2019-03-06T21:37:53.950Z,10.00
2019-03-06T21:40:22.778Z,10.00
2019-03-06T21:42:51.914Z,10.00
2019-03-06T21:45:20.800Z,10.00
2019-03-06T21:47:49.642Z,10.00
2019-03-06T21:50:18.975Z,10.00
2019-03-06T21:52:47.830Z,10.00
2019-03-06T21:55:16.662Z,9.90
2019-03-06T21:57:45.829Z,10.00
2019-03-06T22:00:33.844Z,9.90
2019-03-06T22:03:02.645Z,9.90
2019-03-06T22:05:31.438Z,9.90
2019-03-06T22:08:00.312Z,9.90
2019-03-06T22:10:29.027Z,9.90
2019-03-06T22:12:57.799Z,9.90
2019-03-06T22:15:26.692Z,9.90
2019-03-06T22:17:55.484Z,9.90
2019-03-06T22:20:24.231Z,9.90
2019-03-06T22:22:53.053Z,10.00
2019-03-06T22:25:22.171Z,10.00
2019-03-06T22:27:50.975Z,10.00
2019-03-06T22:30:22.345Z,10.10
2019-03-06T22:32:50.938Z,10.10
2019-03-06T22:35:19.699Z,10.20
2019-03-06T22:37:48.561Z,10.10
2019-03-06T22:40:18.348Z,10.20
2019-03-06T22:42:47.228Z,10.20
2019-03-06T22:45:16.766Z,10.30
2019-03-06T22:47:45.711Z,10.30
2019-03-06T22:50:14.789Z,10.30
2019-03-06T22:52:43.695Z,10.30
2019-03-06T22:55:13.992Z,10.30
2019-03-06T22:57:42.727Z,10.30
2019-03-06T23:00:22.384Z,10.30
2019-03-06T23:02:51.235Z,10.30
2019-03-06T23:05:20.065Z,10.30
2019-03-06T23:07:48.868Z,10.30
2019-03-06T23:10:17.773Z,10.40
2019-03-06T23:12:46.926Z,10.40
2019-03-06T23:15:15.602Z,10.30
2019-03-06T23:17:44.313Z,10.30
2019-03-06T23:20:13.430Z,10.30
2019-03-06T23:22:42.116Z,10.30
2019-03-06T23:25:10.835Z,10.30
2019-03-06T23:27:39.454Z,10.30
2019-03-06T23:30:11.974Z,10.30
2019-03-06T23:32:40.852Z,10.30
2019-03-06T23:35:09.754Z,10.30
2019-03-06T23:37:38.595Z,10.30
2019-03-06T23:40:09.080Z,10.30
2019-03-06T23:42:37.854Z,10.30
2019-03-06T23:45:07.551Z,10.30
2019-03-06T23:47:36.362Z,10.30
2019-03-06T23:50:06.076Z,10.30
2019-03-06T23:52:39.466Z,10.30
2019-03-06T23:55:08.404Z,10.40
2019-03-06T23:57:37.154Z,10.40
